ADDS METAR Data INFO
IDs: Format: Raw Decoded Include TAF

Data at: 1903 UTC 23 Apr 2018

K3AU 231855Z AUTO 31005KT 10SM CLR 20/05 A3009 RMK AO2
K3AU 231835Z AUTO 34003KT 10SM CLR 18/04 A3010 RMK AO2
K3AU 231815Z AUTO 33008KT 10SM CLR 19/05 A3011 RMK AO2
K3AU 231755Z AUTO 34007KT 310V010 10SM CLR 18/03 A3011 RMK AO2
K3AU 231735Z AUTO 35005KT 10SM SCT075 18/04 A3013 RMK AO2
K3AU 231715Z AUTO 03005KT 10SM OVC075 17/04 A3013 RMK AO2
K3AU 231655Z AUTO 31004KT 10SM OVC075 17/04 A3013 RMK AO2
K3AU 231635Z AUTO 35004KT 10SM OVC075 16/04 A3014 RMK AO2
K3AU 231615Z AUTO 36006KT 10SM OVC075 15/03 A3014 RMK AO2
K3AU 231555Z AUTO 02005KT 10SM OVC075 15/03 A3014 RMK AO2
K3AU 231535Z AUTO 02006KT 10SM OVC075 14/04 A3014 RMK AO2
K3AU 231515Z AUTO 04005KT 10SM OVC075 13/04 A3014 RMK AO2
K3AU 231455Z AUTO 03006KT 10SM OVC075 13/05 A3014 RMK AO2
K3AU 231435Z AUTO 02006KT 10SM OVC075 12/05 A3014 RMK AO2
K3AU 231415Z AUTO 01009KT 10SM OVC075 12/06 A3014 RMK AO2
K3AU 231355Z AUTO 02008KT 10SM OVC075 11/06 A3014 RMK AO2
K3AU 231335Z AUTO 02008KT 10SM OVC075 10/06 A3014 RMK AO2
K3AU 231315Z AUTO 35007KT 10SM OVC075 10/07 A3014 RMK AO2
K3AU 231255Z AUTO 35008KT 10SM OVC075 09/07 A3014 RMK AO2
K3AU 231235Z AUTO 35008KT 10SM SCT075 08/06 A3013 RMK AO2
K3AU 231215Z AUTO 35008KT 10SM CLR 07/06 A3013 RMK AO2
K3AU 231155Z AUTO 34007KT 10SM CLR 07/06 A3012 RMK AO2
K3AU 231135Z AUTO 33006KT 10SM CLR 07/06 A3011 RMK AO2
K3AU 231115Z AUTO 34008KT 10SM CLR 08/06 A3011 RMK AO2
K3AU 231055Z AUTO 36007KT 10SM CLR 08/07 A3010 RMK AO2
K3AU 231035Z AUTO 34008KT 10SM CLR 08/07 A3010 RMK AO2
K3AU 231015Z AUTO 33008KT 10SM CLR 07/07 A3010 RMK AO2
K3AU 230950Z AUTO 33006KT 10SM SCT044 08/07 A3009 RMK AO2
K3AU 230935Z AUTO 34008KT 10SM SCT044 08/07 A3009 RMK AO2
K3AU 230915Z AUTO 34007KT 10SM CLR 08/07 A3009 RMK AO2
K3AU 230855Z AUTO 34008KT 10SM CLR 09/07 A3009 RMK AO2
K3AU 230835Z AUTO 35007KT 10SM SCT037 09/07 A3009 RMK AO2
K3AU 230815Z AUTO 33006KT 10SM SCT037 BKN070 09/07 A3009 RMK AO2
K3AU 230755Z AUTO 34007KT 10SM OVC070 10/07 A3009 RMK AO2
K3AU 230735Z AUTO 34008KT 10SM OVC070 10/08 A3009 RMK AO2
K3AU 230715Z AUTO 33006KT 10SM OVC060 10/08 A3009 RMK AO2
K3AU 230655Z AUTO 32005KT 10SM OVC060 10/08 A3010 RMK AO2
K3AU 230635Z AUTO 33006KT 10SM OVC060 10/08 A3009 RMK AO2
K3AU 230615Z AUTO 33006KT 10SM OVC060 11/08 A3010 RMK AO2
K3AU 230555Z AUTO 34007KT 10SM OVC060 11/08 A3010 RMK AO2
K3AU 230535Z AUTO 32005KT 10SM OVC060 11/08 A3010 RMK AO2
K3AU 230515Z AUTO 32004KT 10SM OVC060 10/08 A3010 RMK AO2
K3AU 230455Z AUTO 32005KT 10SM OVC060 11/08 A3010 RMK AO2
K3AU 230435Z AUTO 33005KT 10SM OVC060 11/08 A3010 RMK AO2
K3AU 230415Z AUTO 31005KT 10SM OVC060 11/09 A3010 RMK AO2
K3AU 230355Z AUTO 31004KT 10SM OVC060 11/10 A3011 RMK AO2
K3AU 230335Z AUTO 31004KT 10SM SCT042 OVC060 10/10 A3011 RMK AO2
K3AU 230315Z AUTO 33004KT 10SM SCT036 BKN043 OVC050 10/10 A3011 RMK AO2
K3AU 230255Z AUTO 34004KT 10SM BKN034 OVC050 10/10 A3011 RMK AO2
K3AU 230235Z AUTO 01004KT 10SM SCT016 BKN022 OVC032 10/10 A3011 RMK AO2
K3AU 230215Z AUTO 05006KT 10SM OVC023 11/09 A3011 RMK AO2
K3AU 230155Z AUTO 05005KT 10SM OVC025 11/08 A3010 RMK AO2
K3AU 230135Z AUTO 04006KT 10SM BKN027 OVC032 12/07 A3010 RMK AO2
K3AU 230115Z AUTO 34008KT 10SM BKN029 BKN034 OVC042 11/07 A3008 RMK AO2
K3AU 230055Z AUTO 33005KT 10SM OVC029 11/08 A3008 RMK AO2
K3AU 230035Z AUTO 32006KT 10SM OVC029 11/08 A3008 RMK AO2
K3AU 230015Z AUTO 33007KT 10SM OVC027 12/08 A3008 RMK AO2
K3AU 222355Z AUTO 33010G14KT 10SM OVC027 11/08 A3007 RMK AO2
K3AU 222335Z AUTO 34010KT 10SM OVC025 12/08 A3007 RMK AO2
K3AU 222315Z AUTO 34012G16KT 10SM OVC023 12/08 A3007 RMK AO2
K3AU 222255Z AUTO 35011G15KT 10SM OVC023 12/08 A3007 RMK AO2
K3AU 222235Z AUTO 34011G15KT 10SM OVC021 12/08 A3007 RMK AO2
K3AU 222215Z AUTO 34012G18KT 10SM OVC021 11/07 A3007 RMK AO2
K3AU 222155Z AUTO 35014G17KT 10SM OVC023 11/07 A3006 RMK AO2
K3AU 222135Z AUTO 34014G19KT 10SM OVC021 11/07 A3007 RMK AO2
K3AU 222115Z AUTO 35012KT 10SM OVC019 11/08 A3007 RMK AO2
K3AU 222055Z AUTO 36012G18KT 10SM OVC017 11/08 A3007 RMK AO2
K3AU 222035Z AUTO 01015G18KT 10SM BKN023 OVC027 11/07 A3008 RMK AO2
K3AU 222015Z AUTO 35012G20KT 10SM OVC027 11/06 A3009 RMK AO2
K3AU 221955Z AUTO 35013G20KT 10SM OVC025 11/07 A3009 RMK AO2
K3AU 221935Z AUTO 34013G21KT 10SM OVC023 10/07 A3009 RMK AO2
K3AU 221915Z AUTO 36016G21KT 10SM OVC023 10/07 A3010 RMK AO2
K3AU 221855Z AUTO 36016G20KT 10SM OVC025 10/07 A3009 RMK AO2
K3AU 221835Z AUTO 34014G19KT 10SM OVC027 10/07 A3009 RMK AO2
K3AU 221815Z AUTO 34014G20KT 10SM OVC025 11/07 A3009 RMK AO2
K3AU 221755Z AUTO 34013KT 10SM OVC025 11/07 A3010 RMK AO2
K3AU 221735Z AUTO 35012KT 10SM OVC027 11/07 A3010 RMK AO2
K3AU 221715Z AUTO 33013G18KT 10SM BKN029 OVC034 10/06 A3011 RMK AO2
K3AU 221655Z AUTO 33013G18KT 10SM BKN033 OVC041 10/06 A3011 RMK AO2
K3AU 221635Z AUTO 34012G17KT 10SM OVC039 10/06 A3011 RMK AO2
K3AU 221615Z AUTO 35013G20KT 10SM SCT041 BKN049 OVC055 10/06 A3011 RMK AO2
K3AU 221555Z AUTO 34015KT 10SM BKN039 OVC049 08/06 A3011 RMK AO2
K3AU 221535Z AUTO 34014G19KT 10SM OVC039 08/05 A3011 RMK AO2
K3AU 221515Z AUTO 34011G17KT 10SM OVC039 08/06 A3011 RMK AO2
K3AU 221455Z AUTO 33013KT 10SM OVC039 07/06 A3011 RMK AO2
K3AU 221435Z AUTO 34014KT 10SM SCT025 BKN035 OVC043 07/06 A3011 RMK AO2
K3AU 221415Z AUTO 33011KT 10SM SCT031 BKN040 OVC048 07/06 A3011 RMK AO2
K3AU 221355Z AUTO 34010KT 10SM SCT019 OVC038 07/06 A3011 RMK AO2
K3AU 221335Z AUTO 33009KT 10SM BKN019 BKN034 OVC040 07/06 A3010 RMK AO2
K3AU 221315Z AUTO 34009KT 10SM SCT021 BKN029 OVC042 06/06 A3010 RMK AO2
K3AU 221255Z AUTO 33008KT 7SM DZ BKN031 OVC039 06/06 A3011 RMK AO2
K3AU 221235Z AUTO 33009KT 10SM BKN041 OVC047 06/06 A3010 RMK AO2
K3AU 221215Z AUTO 33008KT 10SM OVC047 06/06 A3009 RMK AO2
K3AU 221155Z AUTO 33008KT 10SM OVC049 06/06 A3008 RMK AO2
K3AU 221135Z AUTO 34009KT 10SM SCT043 OVC049 06/06 A3008 RMK AO2
K3AU 221115Z AUTO 33008KT 10SM BKN039 OVC045 06/06 A3009 RMK AO2
K3AU 221055Z AUTO 34009KT 10SM BKN033 OVC039 06/06 A3009 RMK AO2
K3AU 221035Z AUTO 33010G14KT 10SM OVC031 06/06 A3008 RMK AO2
K3AU 221015Z AUTO 33009KT 10SM OVC033 06/06 A3007 RMK AO2
K3AU 220955Z AUTO 32009KT 10SM SCT008 OVC035 06/06 A3007 RMK AO2
K3AU 220935Z AUTO 32009KT 10SM SCT007 OVC033 06/06 A3006 RMK AO2
K3AU 220915Z AUTO 34011KT 10SM -DZ SCT007 OVC033 06/06 A3007 RMK AO2
K3AU 220855Z AUTO 34012KT 7SM -DZ SCT007 SCT014 OVC031 06/06 A3006 RMK AO2
K3AU 220835Z AUTO 34010G15KT 7SM DZ BKN007 BKN014 OVC019 06/06 A3007 RMK AO2
K3AU 220815Z AUTO 35010KT 7SM RA OVC007 06/06 A3008 RMK AO2
K3AU 220755Z AUTO 34011KT 7SM RA BKN009 OVC016 06/06 A3008 RMK AO2
K3AU 220735Z AUTO 34009KT 7SM -RA BKN007 OVC018 06/06 A3008 RMK AO2
K3AU 220715Z AUTO 34010KT 7SM RA OVC007 06/06 A3009 RMK AO2